createdAt,value
2017-10-18T00:02:16.119Z,24.27
2017-10-18T00:04:44.367Z,30.50
2017-10-18T00:07:11.855Z,39.83
2017-10-18T00:09:40.133Z,24.17
2017-10-18T00:12:08.379Z,25.87
2017-10-18T00:14:35.863Z,24.37
2017-10-18T00:17:05.050Z,28.30
2017-10-18T00:19:32.541Z,29.00
2017-10-18T00:22:00.035Z,27.30
2017-10-18T00:24:27.529Z,26.47
2017-10-18T00:26:55.780Z,32.57
2017-10-18T00:29:23.370Z,24.27
2017-10-18T00:31:51.614Z,22.20
2017-10-18T00:34:19.110Z,19.13
2017-10-18T00:36:47.376Z,21.27
2017-10-18T00:39:14.856Z,21.60
2017-10-18T00:41:43.107Z,21.10
2017-10-18T00:44:10.791Z,25.10
2017-10-18T00:46:39.036Z,19.00
2017-10-18T00:49:08.044Z,19.80
2017-10-18T00:51:36.411Z,21.70
2017-10-18T00:56:39.578Z,21.50
2017-10-18T00:59:07.055Z,18.83
2017-10-18T01:01:34.530Z,22.67
2017-10-18T01:04:02.027Z,20.70
2017-10-18T01:06:29.511Z,20.47
2017-10-18T01:08:56.990Z,26.07
2017-10-18T01:11:24.585Z,23.03
2017-10-18T01:13:52.833Z,21.47
2017-10-18T01:16:20.311Z,19.73
2017-10-18T01:18:48.591Z,21.30
2017-10-18T01:21:16.070Z,22.37
2017-10-18T01:23:44.321Z,20.50
2017-10-18T01:26:11.816Z,21.47
2017-10-18T01:28:39.304Z,19.67
2017-10-18T01:31:06.774Z,20.70
2017-10-18T01:33:34.272Z,20.07
2017-10-18T01:36:02.520Z,22.23
2017-10-18T01:38:30.100Z,20.50
2017-10-18T01:40:58.379Z,19.67
2017-10-18T01:43:26.638Z,21.57
2017-10-18T01:45:54.223Z,19.53
2017-10-18T01:48:22.475Z,23.53
2017-10-18T01:50:49.961Z,20.53
2017-10-18T01:53:17.501Z,24.63
2017-10-18T01:55:45.309Z,20.10
2017-10-18T01:58:12.787Z,20.80
2017-10-18T02:00:40.271Z,23.73
2017-10-18T02:03:07.755Z,23.53
2017-10-18T02:05:36.939Z,28.93
2017-10-18T02:08:04.415Z,29.03
2017-10-18T02:10:32.783Z,24.50
2017-10-18T02:13:01.028Z,25.83
2017-10-18T02:15:28.503Z,23.63
2017-10-18T02:17:56.758Z,21.90
2017-10-18T02:20:24.242Z,20.53
2017-10-18T02:22:51.718Z,23.00
2017-10-18T02:25:19.974Z,19.47
2017-10-18T02:27:47.472Z,20.47
2017-10-18T02:30:15.058Z,19.57
2017-10-18T02:32:42.644Z,19.20
2017-10-18T02:35:10.125Z,26.70
2017-10-18T02:37:38.378Z,21.37
2017-10-18T02:40:05.863Z,24.20
2017-10-18T02:42:34.108Z,22.20
2017-10-18T02:45:01.580Z,18.33
2017-10-18T02:47:29.861Z,19.83
2017-10-18T02:49:57.329Z,18.80
2017-10-18T02:55:00.324Z,19.70
2017-10-18T02:57:28.573Z,19.50
2017-10-18T02:59:56.051Z,20.87
2017-10-18T03:02:23.619Z,18.13
2017-10-18T03:04:51.895Z,18.27
2017-10-18T03:07:20.140Z,17.97
2017-10-18T03:09:48.412Z,20.10
2017-10-18T03:12:15.895Z,17.80
2017-10-18T03:14:43.432Z,18.37
2017-10-18T03:17:11.027Z,19.57
2017-10-18T03:19:39.271Z,23.37
2017-10-18T03:22:06.759Z,42.10
2017-10-18T03:24:35.020Z,53.17
2017-10-18T03:27:03.433Z,19.70
2017-10-18T03:29:31.690Z,20.60
2017-10-18T03:31:59.176Z,21.00
2017-10-18T03:34:26.666Z,19.43
2017-10-18T03:36:54.162Z,19.27
2017-10-18T03:39:21.657Z,17.97
2017-10-18T03:41:49.134Z,20.13
2017-10-18T03:44:16.638Z,18.27
2017-10-18T03:46:44.291Z,18.90
2017-10-18T03:49:11.784Z,19.33
2017-10-18T03:51:39.267Z,19.87
2017-10-18T03:54:06.780Z,19.83
2017-10-18T03:56:35.060Z,19.30
2017-10-18T03:59:03.336Z,19.47
2017-10-18T04:01:31.648Z,22.40
2017-10-18T04:03:59.132Z,20.70
2017-10-18T04:06:26.627Z,20.03
2017-10-18T04:08:54.907Z,19.23
2017-10-18T04:11:23.159Z,17.50
2017-10-18T04:13:50.742Z,19.80
2017-10-18T04:16:20.169Z,20.03
2017-10-18T04:18:47.686Z,19.87
2017-10-18T04:21:15.158Z,18.07
2017-10-18T04:23:42.727Z,18.60
2017-10-18T04:26:10.978Z,17.40
2017-10-18T04:28:40.897Z,17.77
2017-10-18T04:31:08.386Z,17.97
2017-10-18T04:33:36.646Z,17.77
2017-10-18T04:36:04.897Z,16.97
2017-10-18T04:38:32.482Z,18.67
2017-10-18T04:41:00.733Z,18.10
2017-10-18T04:43:28.218Z,18.93
2017-10-18T04:45:56.478Z,18.80
2017-10-18T04:48:24.068Z,19.97
2017-10-18T04:50:52.309Z,18.33
2017-10-18T04:53:19.896Z,20.30
2017-10-18T04:55:48.148Z,19.90
2017-10-18T04:58:16.404Z,20.80
2017-10-18T05:00:43.895Z,21.87
2017-10-18T05:03:12.147Z,22.47
2017-10-18T05:05:41.326Z,20.90
2017-10-18T05:08:08.812Z,20.80
2017-10-18T05:10:36.397Z,21.00
2017-10-18T05:13:04.670Z,19.13
2017-10-18T05:15:32.944Z,21.17
2017-10-18T05:18:06.937Z,21.13
2017-10-18T05:20:35.322Z,18.97
2017-10-18T05:23:02.806Z,19.43
2017-10-18T05:25:31.049Z,20.63
2017-10-18T05:28:00.149Z,26.67
2017-10-18T05:30:27.631Z,23.13
2017-10-18T05:32:55.884Z,33.10
2017-10-18T05:35:23.377Z,18.47
2017-10-18T05:37:50.920Z,29.13
2017-10-18T05:40:19.163Z,20.37
2017-10-18T05:42:46.664Z,23.30
2017-10-18T05:45:14.902Z,21.77
2017-10-18T05:47:42.388Z,24.73
2017-10-18T05:50:10.644Z,20.83
2017-10-18T05:52:38.124Z,20.03
2017-10-18T05:55:06.370Z,21.70
2017-10-18T05:57:33.890Z,21.23
2017-10-18T06:00:01.377Z,20.90
2017-10-18T06:02:29.120Z,19.93
2017-10-18T06:04:56.672Z,21.50
2017-10-18T06:07:24.164Z,19.80
2017-10-18T06:09:51.763Z,25.10
2017-10-18T06:12:20.031Z,20.47
2017-10-18T06:14:48.283Z,22.03
2017-10-18T06:17:15.760Z,19.50
2017-10-18T06:19:43.471Z,22.10
2017-10-18T06:22:10.943Z,18.17
2017-10-18T06:24:38.416Z,21.63
2017-10-18T06:27:05.911Z,23.70
2017-10-18T06:29:34.158Z,19.47
2017-10-18T06:32:01.637Z,22.10
2017-10-18T06:34:29.895Z,18.50
2017-10-18T06:36:57.375Z,17.97
2017-10-18T06:39:25.618Z,17.33
2017-10-18T06:41:53.114Z,18.17
2017-10-18T06:44:21.363Z,18.70
2017-10-18T06:46:49.693Z,16.37
2017-10-18T06:49:17.218Z,16.47
2017-10-18T06:51:45.458Z,18.73
2017-10-18T06:54:14.456Z,16.80
2017-10-18T06:56:42.050Z,17.60
2017-10-18T06:59:10.338Z,17.53
2017-10-18T07:01:38.586Z,17.97
2017-10-18T07:04:06.848Z,19.17
2017-10-18T07:06:34.335Z,16.73
2017-10-18T07:09:02.613Z,16.50
2017-10-18T07:11:30.123Z,16.20
2017-10-18T07:13:57.608Z,14.17
2017-10-18T07:16:25.083Z,16.10
2017-10-18T07:18:52.584Z,19.80
2017-10-18T07:21:20.061Z,17.10
2017-10-18T07:23:47.538Z,15.70
2017-10-18T07:26:15.131Z,17.23
2017-10-18T07:28:43.407Z,14.40
2017-10-18T07:31:11.678Z,19.70
2017-10-18T07:33:39.940Z,18.70
2017-10-18T07:36:08.186Z,18.27
2017-10-18T07:38:35.673Z,22.87
2017-10-18T07:41:04.676Z,19.47
2017-10-18T07:43:32.172Z,16.30
2017-10-18T07:45:59.654Z,19.37
2017-10-18T07:48:27.160Z,17.40
2017-10-18T07:50:55.412Z,17.70
2017-10-18T07:53:22.893Z,21.13
2017-10-18T07:55:51.154Z,18.07
2017-10-18T07:58:18.641Z,21.87
2017-10-18T08:00:46.191Z,18.73
2017-10-18T08:03:14.455Z,18.97
2017-10-18T08:05:42.028Z,18.90
2017-10-18T08:08:10.292Z,16.83
2017-10-18T08:10:38.555Z,20.20
2017-10-18T08:13:06.523Z,20.63
2017-10-18T08:15:34.810Z,23.67
2017-10-18T08:18:02.309Z,26.47
2017-10-18T08:20:29.791Z,24.20
2017-10-18T08:22:57.303Z,27.03
2017-10-18T08:25:25.563Z,24.70
2017-10-18T08:27:53.046Z,21.87
2017-10-18T08:30:20.531Z,31.03
2017-10-18T08:32:48.030Z,25.00
2017-10-18T08:35:15.510Z,27.23
2017-10-18T08:37:43.766Z,27.40
2017-10-18T08:40:11.344Z,24.10
2017-10-18T08:42:39.597Z,28.53
2017-10-18T08:45:07.078Z,26.50
2017-10-18T08:47:35.339Z,24.47
2017-10-18T08:50:02.818Z,30.97
2017-10-18T08:52:31.082Z,30.10
2017-10-18T08:54:59.363Z,24.40
2017-10-18T08:57:27.642Z,28.63
2017-10-18T08:59:55.916Z,34.63
2017-10-18T09:02:24.439Z,42.50
2017-10-18T09:04:51.924Z,36.00
2017-10-18T09:07:19.404Z,31.23
2017-10-18T09:09:46.913Z,39.40
2017-10-18T09:12:14.399Z,34.87
2017-10-18T09:14:41.888Z,32.80
2017-10-18T09:17:10.147Z,34.93
2017-10-18T09:19:37.644Z,35.80
2017-10-18T09:22:12.060Z,33.83
2017-10-18T09:24:40.307Z,34.67
2017-10-18T09:27:07.880Z,38.40
2017-10-18T09:29:36.165Z,42.17
2017-10-18T09:32:04.411Z,40.83
2017-10-18T09:34:31.897Z,32.77
2017-10-18T09:37:00.155Z,34.27
2017-10-18T09:39:27.643Z,35.57
2017-10-18T09:41:55.899Z,35.30
2017-10-18T09:44:24.159Z,33.77
2017-10-18T09:46:53.167Z,29.57
2017-10-18T09:49:21.423Z,28.20
2017-10-18T09:51:50.332Z,30.70
2017-10-18T09:54:17.904Z,29.70
2017-10-18T09:56:46.178Z,29.97
2017-10-18T09:59:14.490Z,33.70
2017-10-18T10:01:42.019Z,27.40
2017-10-18T10:04:10.268Z,36.80
2017-10-18T10:06:37.763Z,27.80
2017-10-18T10:09:06.014Z,34.37
2017-10-18T10:11:35.010Z,28.23
2017-10-18T10:14:02.508Z,29.58
2017-10-18T10:16:29.991Z,33.43
2017-10-18T10:18:57.474Z,30.87
2017-10-18T10:21:25.057Z,28.83
2017-10-18T10:23:53.304Z,28.87
2017-10-18T10:26:21.683Z,35.63
2017-10-18T10:28:49.175Z,26.73
2017-10-18T10:31:17.422Z,25.50
2017-10-18T10:33:45.714Z,27.07
2017-10-18T10:36:13.975Z,26.90
2017-10-18T10:38:41.467Z,25.80
2017-10-18T10:41:09.718Z,25.73
2017-10-18T10:43:37.221Z,23.13
2017-10-18T10:46:04.704Z,23.23
2017-10-18T10:48:32.211Z,25.20
2017-10-18T10:51:00.486Z,25.40
2017-10-18T10:53:28.763Z,28.13
2017-10-18T10:55:57.027Z,26.50
2017-10-18T10:58:24.522Z,23.50
2017-10-18T11:00:53.155Z,25.23
2017-10-18T11:03:20.638Z,25.60
2017-10-18T11:05:48.916Z,27.20
2017-10-18T11:08:17.191Z,27.83
2017-10-18T11:10:45.464Z,30.07
2017-10-18T11:13:13.744Z,29.83
2017-10-18T11:15:42.032Z,28.07
2017-10-18T11:18:10.296Z,29.07
2017-10-18T11:20:38.568Z,27.10
2017-10-18T11:23:06.136Z,29.00
2017-10-18T11:25:34.408Z,27.73
2017-10-18T11:28:02.696Z,32.23
2017-10-18T11:30:31.067Z,30.37
2017-10-18T11:32:59.319Z,36.17
2017-10-18T11:35:26.903Z,32.00
2017-10-18T11:37:55.147Z,33.40
2017-10-18T11:40:22.632Z,39.37
2017-10-18T11:42:50.891Z,38.20
2017-10-18T11:45:18.376Z,32.90
2017-10-18T11:47:46.619Z,39.10
2017-10-18T11:50:14.450Z,42.50
2017-10-18T11:52:41.931Z,38.63
2017-10-18T11:55:09.414Z,39.70
2017-10-18T11:57:36.915Z,45.40
2017-10-18T12:00:04.446Z,40.28
2017-10-18T12:02:32.729Z,42.20
2017-10-18T12:05:00.997Z,40.93
2017-10-18T12:07:29.246Z,40.50
2017-10-18T12:09:56.730Z,45.10
2017-10-18T12:12:25.914Z,45.53
2017-10-18T12:14:55.848Z,42.53
2017-10-18T12:17:24.108Z,43.37
2017-10-18T12:19:51.600Z,48.67
2017-10-18T12:22:19.137Z,45.83
2017-10-18T12:24:47.423Z,47.60
2017-10-18T12:27:15.690Z,48.67
2017-10-18T12:29:43.942Z,50.20
2017-10-18T12:32:11.531Z,43.43
2017-10-18T12:34:39.795Z,44.10
2017-10-18T12:37:07.368Z,51.40
2017-10-18T12:39:35.872Z,51.67
2017-10-18T12:42:03.368Z,42.23
2017-10-18T12:44:30.977Z,44.47
2017-10-18T12:46:58.479Z,44.47
2017-10-18T12:49:27.019Z,48.20
2017-10-18T12:51:55.283Z,51.10
2017-10-18T12:54:23.536Z,47.30
2017-10-18T12:56:51.027Z,50.00
2017-10-18T12:59:19.299Z,44.20
2017-10-18T13:01:47.558Z,49.50
2017-10-18T13:04:15.130Z,46.10
2017-10-18T13:06:43.497Z,49.10
2017-10-18T13:09:10.987Z,51.90
2017-10-18T13:11:38.514Z,52.43
2017-10-18T13:14:06.090Z,54.13
2017-10-18T13:16:34.368Z,53.97
2017-10-18T13:19:02.632Z,56.50
2017-10-18T13:21:30.204Z,67.03
2017-10-18T13:23:58.652Z,55.15
2017-10-18T13:26:26.258Z,53.93
2017-10-18T13:28:54.506Z,53.83
2017-10-18T13:31:23.507Z,59.93
2017-10-18T13:33:51.772Z,61.77
2017-10-18T13:36:19.350Z,57.07
2017-10-18T13:38:47.660Z,57.90
2017-10-18T13:41:15.188Z,56.10
2017-10-18T13:43:43.443Z,61.58
2017-10-18T13:46:11.021Z,50.40
2017-10-18T13:48:39.276Z,64.27
2017-10-18T13:51:06.856Z,64.60
2017-10-18T13:53:35.177Z,59.00
2017-10-18T13:56:02.680Z,59.30
2017-10-18T13:58:30.165Z,62.77
2017-10-18T14:00:59.125Z,57.70
2017-10-18T14:03:26.619Z,58.73
2017-10-18T14:05:54.867Z,59.23
2017-10-18T14:08:22.374Z,62.17
2017-10-18T14:10:49.897Z,58.10
2017-10-18T14:13:18.152Z,55.10
2017-10-18T14:15:46.399Z,62.93
2017-10-18T14:18:13.904Z,62.17
2017-10-18T14:20:41.401Z,66.30
2017-10-18T14:23:08.926Z,63.77
2017-10-18T14:25:37.182Z,57.83
2017-10-18T14:28:04.666Z,63.90
2017-10-18T14:30:32.944Z,63.30
2017-10-18T14:33:01.216Z,61.23
2017-10-18T14:35:29.463Z,55.50
2017-10-18T14:37:57.029Z,88.80
2017-10-18T14:40:24.528Z,70.90
2017-10-18T14:42:52.016Z,62.10
2017-10-18T14:45:19.499Z,66.07
2017-10-18T14:47:47.002Z,66.23
2017-10-18T14:50:14.487Z,72.63
2017-10-18T14:52:41.968Z,64.03
2017-10-18T14:55:09.471Z,68.67
2017-10-18T14:57:37.717Z,78.43
2017-10-18T15:00:05.200Z,67.13
2017-10-18T15:02:33.459Z,70.30
2017-10-18T15:05:01.035Z,64.57
2017-10-18T15:07:29.591Z,80.27
2017-10-18T15:09:57.083Z,80.93
2017-10-18T15:12:25.334Z,76.27
2017-10-18T15:14:52.819Z,74.23
2017-10-18T15:17:21.197Z,74.20
2017-10-18T15:19:49.442Z,77.83
2017-10-18T15:22:16.923Z,82.60
2017-10-18T15:24:45.198Z,77.20
2017-10-18T15:27:14.188Z,80.35
2017-10-18T15:29:48.535Z,71.77
2017-10-18T15:32:16.020Z,82.73
2017-10-18T15:34:43.504Z,77.23
2017-10-18T15:37:11.014Z,78.07
2017-10-18T15:39:39.222Z,82.10
2017-10-18T15:42:06.764Z,77.23
2017-10-18T15:44:34.255Z,81.63
2017-10-18T15:47:01.742Z,84.27
2017-10-18T15:49:30.012Z,76.90
2017-10-18T15:51:59.199Z,85.80
2017-10-18T15:54:26.711Z,95.83
2017-10-18T15:56:54.227Z,85.27
2017-10-18T15:59:22.502Z,97.47
2017-10-18T16:01:50.764Z,90.40
2017-10-18T16:04:18.345Z,121.60
2017-10-18T16:06:46.716Z,103.57
2017-10-18T16:09:14.992Z,114.23
2017-10-18T16:11:43.250Z,109.33
2017-10-18T16:14:10.833Z,93.63
2017-10-18T16:16:39.087Z,111.13
2017-10-18T16:19:06.576Z,90.67
2017-10-18T16:21:34.082Z,98.43
2017-10-18T16:24:01.578Z,140.53
2017-10-18T16:26:30.174Z,189.90
2017-10-18T16:28:59.371Z,111.27
2017-10-18T16:31:27.636Z,109.23
2017-10-18T16:33:55.896Z,103.53
2017-10-18T16:36:23.396Z,104.50
2017-10-18T16:38:50.911Z,101.87
2017-10-18T16:41:18.435Z,95.27
2017-10-18T16:43:45.935Z,109.27
2017-10-18T16:46:13.515Z,105.13
2017-10-18T16:48:41.771Z,108.33
2017-10-18T16:51:09.267Z,129.57
2017-10-18T16:53:36.755Z,129.07
2017-10-18T16:56:04.251Z,113.30
2017-10-18T16:58:32.519Z,124.10
2017-10-18T17:01:00.016Z,125.23
2017-10-18T17:03:27.519Z,119.90
2017-10-18T17:05:55.179Z,206.33
2017-10-18T17:08:22.683Z,189.00
2017-10-18T17:10:50.950Z,122.00
2017-10-18T17:13:19.206Z,122.63
2017-10-18T17:15:46.704Z,131.87
2017-10-18T17:18:15.107Z,112.63
2017-10-18T17:20:42.602Z,116.03
2017-10-18T17:23:10.321Z,113.60
2017-10-18T17:25:37.816Z,114.47
2017-10-18T17:28:05.316Z,157.17
2017-10-18T17:30:32.928Z,163.35
2017-10-18T17:33:00.476Z,132.07
2017-10-18T17:35:27.984Z,111.57
2017-10-18T17:37:56.402Z,127.60
2017-10-18T17:40:24.704Z,118.87
2017-10-18T17:42:52.204Z,148.87
2017-10-18T17:45:20.464Z,140.70
2017-10-18T17:47:48.728Z,111.03
2017-10-18T17:50:16.996Z,109.37
2017-10-18T17:52:44.591Z,120.80
2017-10-18T17:55:12.854Z,144.00
2017-10-18T17:57:40.599Z,110.17
2017-10-18T18:00:08.093Z,127.50
2017-10-18T18:02:36.493Z,129.37
2017-10-18T18:05:04.025Z,107.30
2017-10-18T18:07:32.299Z,170.33
2017-10-18T18:10:01.354Z,233.48
2017-10-18T18:12:30.667Z,113.60
2017-10-18T18:14:58.163Z,120.93
2017-10-18T18:17:26.430Z,104.20
2017-10-18T18:19:55.431Z,248.03
2017-10-18T18:22:23.910Z,124.93
2017-10-18T18:24:52.175Z,158.37
2017-10-18T18:27:20.450Z,140.70
2017-10-18T18:29:47.950Z,130.97
2017-10-18T18:32:15.443Z,105.33
2017-10-18T18:34:43.275Z,109.27
2017-10-18T18:37:10.819Z,136.90
2017-10-18T18:39:38.330Z,127.57
2017-10-18T18:42:05.892Z,139.07
2017-10-18T18:44:33.416Z,307.53
2017-10-18T18:47:00.903Z,173.00
2017-10-18T18:49:28.399Z,120.13
2017-10-18T18:51:56.651Z,149.33
2017-10-18T18:54:25.642Z,192.77
2017-10-18T18:56:53.145Z,227.43
2017-10-18T18:59:20.697Z,123.67
2017-10-18T19:01:48.968Z,117.57
2017-10-18T19:04:17.476Z,99.80
2017-10-18T19:06:44.963Z,184.17
2017-10-18T19:09:12.467Z,121.37
2017-10-18T19:11:39.959Z,246.87
2017-10-18T19:14:07.507Z,152.40
2017-10-18T19:16:35.044Z,154.60
2017-10-18T19:19:03.323Z,172.73
2017-10-18T19:21:31.931Z,98.18
2017-10-18T19:23:59.455Z,93.60
2017-10-18T19:26:27.726Z,146.73
2017-10-18T19:28:55.221Z,138.97
2017-10-18T19:31:22.716Z,123.73
2017-10-18T19:33:50.320Z,124.30
2017-10-18T19:36:18.570Z,103.73
2017-10-18T19:38:46.053Z,128.30
2017-10-18T19:41:14.311Z,104.10
2017-10-18T19:43:41.804Z,146.83
2017-10-18T19:46:09.297Z,103.67
2017-10-18T19:48:36.907Z,100.03
2017-10-18T19:51:04.414Z,87.30
2017-10-18T19:53:31.904Z,131.77
2017-10-18T19:55:59.545Z,94.30
2017-10-18T19:58:27.040Z,172.33
2017-10-18T20:00:55.301Z,93.80
2017-10-18T20:03:23.627Z,109.40
2017-10-18T20:05:51.119Z,106.50
2017-10-18T20:08:18.709Z,125.23
2017-10-18T20:10:46.971Z,90.70
2017-10-18T20:13:14.551Z,102.80
2017-10-18T20:15:42.829Z,89.27
2017-10-18T20:18:11.087Z,83.30
2017-10-18T20:20:38.579Z,84.47
2017-10-18T20:23:06.063Z,149.57
2017-10-18T20:25:33.619Z,103.63
2017-10-18T20:28:01.144Z,94.43
2017-10-18T20:30:29.407Z,89.37
2017-10-18T20:32:57.716Z,103.77
2017-10-18T20:35:25.197Z,104.00
2017-10-18T20:37:52.678Z,97.60
2017-10-18T20:40:20.188Z,86.73
2017-10-18T20:42:47.683Z,99.53
2017-10-18T20:45:15.170Z,87.30
2017-10-18T20:47:42.740Z,100.10
2017-10-18T20:50:10.996Z,95.60
2017-10-18T20:52:38.571Z,83.90
2017-10-18T20:55:06.854Z,66.67
2017-10-18T20:57:35.126Z,79.47
2017-10-18T21:00:04.299Z,74.40
2017-10-18T21:02:32.610Z,79.43
2017-10-18T21:05:00.878Z,88.87
2017-10-18T21:07:29.132Z,95.50
2017-10-18T21:09:56.661Z,100.73
2017-10-18T21:12:24.152Z,121.13
2017-10-18T21:14:51.981Z,102.90
2017-10-18T21:17:19.480Z,78.00
2017-10-18T21:19:46.967Z,113.30
2017-10-18T21:22:15.231Z,107.33
2017-10-18T21:24:43.544Z,111.80
2017-10-18T21:27:11.040Z,100.60
2017-10-18T21:29:38.529Z,82.10
2017-10-18T21:32:06.796Z,107.47
2017-10-18T21:34:35.675Z,101.33
2017-10-18T21:37:03.168Z,93.23
2017-10-18T21:39:30.676Z,109.37
2017-10-18T21:41:58.159Z,86.77
2017-10-18T21:44:25.731Z,108.17
2017-10-18T21:46:54.015Z,63.53
2017-10-18T21:49:21.507Z,103.73
2017-10-18T21:51:48.997Z,107.57
2017-10-18T21:54:16.499Z,114.37
2017-10-18T21:56:44.035Z,76.87
2017-10-18T21:59:12.325Z,70.43
2017-10-18T22:01:40.592Z,67.70
2017-10-18T22:04:08.903Z,76.90
2017-10-18T22:06:36.439Z,81.67
2017-10-18T22:09:04.712Z,67.53
2017-10-18T22:11:33.046Z,75.07
2017-10-18T22:14:00.543Z,117.10
2017-10-18T22:16:28.814Z,157.47
2017-10-18T22:18:57.073Z,82.37
2017-10-18T22:21:24.574Z,100.13
2017-10-18T22:23:52.088Z,150.53
2017-10-18T22:26:19.576Z,96.27
2017-10-18T22:28:47.840Z,74.70
2017-10-18T22:31:15.413Z,64.50
2017-10-18T22:33:43.672Z,63.13
2017-10-18T22:36:11.249Z,69.93
2017-10-18T22:38:39.515Z,68.53
2017-10-18T22:41:08.700Z,87.27
2017-10-18T22:43:36.189Z,54.00
2017-10-18T22:46:03.742Z,60.90
2017-10-18T22:48:32.016Z,135.57
2017-10-18T22:51:00.278Z,88.97
2017-10-18T22:53:28.096Z,61.37
2017-10-18T22:55:55.600Z,106.90
2017-10-18T22:58:23.180Z,71.93
2017-10-18T23:00:51.452Z,68.13
2017-10-18T23:03:19.744Z,58.73
2017-10-18T23:05:47.252Z,61.13
2017-10-18T23:08:14.777Z,85.70
2017-10-18T23:10:42.273Z,83.17
2017-10-18T23:13:09.765Z,104.67
2017-10-18T23:15:38.959Z,91.20
2017-10-18T23:18:07.249Z,115.70
2017-10-18T23:20:35.515Z,99.07
2017-10-18T23:23:03.801Z,70.60
2017-10-18T23:25:32.082Z,58.23
2017-10-18T23:27:59.638Z,84.40
2017-10-18T23:30:27.153Z,78.17
2017-10-18T23:32:54.654Z,60.20
2017-10-18T23:35:22.907Z,61.10
2017-10-18T23:37:50.409Z,54.43
2017-10-18T23:40:18.672Z,69.20
2017-10-18T23:42:46.929Z,88.27
2017-10-18T23:45:15.200Z,55.80
2017-10-18T23:47:42.780Z,65.90
2017-10-18T23:50:11.040Z,58.60
2017-10-18T23:52:44.329Z,63.63
2017-10-18T23:55:11.832Z,112.53
2017-10-18T23:57:40.880Z,56.10
